createdAt,value
2022-11-05T00:01:55.561Z,98368.44
2022-11-05T00:04:41.016Z,98353.75
2022-11-05T00:07:31.495Z,98371.25
2022-11-05T00:10:07.481Z,98360.97
2022-11-05T00:12:52.754Z,98376.72
2022-11-05T00:15:40.801Z,98392.34
2022-11-05T00:18:07.640Z,98388.25
2022-11-05T00:20:34.730Z,98382.16
2022-11-05T00:23:21.020Z,98376.84
2022-11-05T00:25:58.609Z,98372.09
2022-11-05T00:28:26.948Z,98373.22
2022-11-05T00:30:54.909Z,98375.16
2022-11-05T00:33:21.853Z,98380.38
2022-11-05T00:35:48.712Z,98362.09
2022-11-05T00:38:15.553Z,98358.41
2022-11-05T00:40:42.418Z,98349.91
2022-11-05T00:43:28.036Z,98364.72
2022-11-05T00:45:54.946Z,98372.56
2022-11-05T00:48:40.764Z,98363.97
2022-11-05T00:51:08.283Z,98377.78
2022-11-05T00:53:35.158Z,98388.38
2022-11-05T00:56:02.698Z,98385.53
2022-11-05T00:58:29.601Z,98371.50
2022-11-05T01:00:58.645Z,98372.25
2022-11-05T01:03:28.245Z,98360.22
2022-11-05T01:06:05.635Z,98346.03
2022-11-05T01:08:32.499Z,98318.16
2022-11-05T01:10:59.946Z,98333.91
2022-11-05T01:13:29.564Z,98331.31
2022-11-05T01:15:57.316Z,98341.84
2022-11-05T01:18:25.473Z,98345.50
2022-11-05T01:20:52.575Z,98334.41
2022-11-05T01:23:20.011Z,98334.41
2022-11-05T01:25:47.246Z,98312.81
2022-11-05T01:28:14.077Z,98317.41
2022-11-05T01:30:40.987Z,98315.59
2022-11-05T01:33:08.563Z,98307.94
2022-11-05T01:35:35.895Z,98323.53
2022-11-05T01:38:03.066Z,98322.72
2022-11-05T01:40:29.952Z,98325.41
2022-11-05T01:42:57.155Z,98322.94
2022-11-05T01:45:28.499Z,98324.66
2022-11-05T01:48:14.645Z,98321.22
2022-11-05T01:50:50.710Z,98322.81
2022-11-05T01:53:29.563Z,98323.53
2022-11-05T01:56:08.786Z,98318.53
2022-11-05T01:59:00.809Z,98315.41
2022-11-05T02:01:28.442Z,98315.34
2022-11-05T02:04:02.851Z,98319.63
2022-11-05T02:06:33.113Z,98307.44
2022-11-05T02:09:15.324Z,98317.72
2022-11-05T02:11:42.722Z,98321.97
2022-11-05T02:14:09.546Z,98311.59
2022-11-05T02:16:55.765Z,98309.84
2022-11-05T02:20:00.189Z,98301.97
2022-11-05T02:22:45.065Z,98299.31
2022-11-05T02:25:39.377Z,98295.94
2022-11-05T02:28:30.437Z,98297.66
2022-11-05T02:31:03.280Z,98300.19
2022-11-05T02:33:42.152Z,98310.72
2022-11-05T02:36:24.138Z,98301.19
2022-11-05T02:39:09.993Z,98305.50
2022-11-05T02:42:04.905Z,98315.94
2022-11-05T02:44:35.156Z,98304.63
2022-11-05T02:47:07.326Z,98309.06
2022-11-05T02:49:59.157Z,98293.34
2022-11-05T02:52:38.396Z,98301.00
2022-11-05T02:55:36.135Z,98309.28
2022-11-05T02:58:05.483Z,98310.88
2022-11-05T03:00:42.379Z,98301.53
2022-11-05T03:03:22.775Z,98301.63
2022-11-05T03:05:55.365Z,98288.56
2022-11-05T03:08:40.307Z,98314.53
2022-11-05T03:11:18.990Z,98319.16
2022-11-05T03:14:22.931Z,98321.81
2022-11-05T03:17:15.875Z,98321.66
2022-11-05T03:19:54.341Z,98323.38
2022-11-05T03:22:30.314Z,98331.22
2022-11-05T03:25:03.300Z,98327.69
2022-11-05T03:27:34.935Z,98322.47
2022-11-05T03:30:08.134Z,98350.38
2022-11-05T03:32:39.244Z,98344.34
2022-11-05T03:35:12.714Z,98339.13
2022-11-05T03:37:43.464Z,98347.72
2022-11-05T03:40:12.865Z,98358.09
2022-11-05T03:42:45.540Z,98367.78
2022-11-05T03:45:26.541Z,98372.09
2022-11-05T03:47:57.920Z,98378.19
2022-11-05T03:50:49.775Z,98372.16
2022-11-05T03:53:21.850Z,98360.91
2022-11-05T03:56:14.660Z,98354.06
2022-11-05T03:58:45.930Z,98333.38
2022-11-05T04:01:12.938Z,98340.56
2022-11-05T04:03:39.787Z,98348.53
2022-11-05T04:06:27.133Z,98364.69
2022-11-05T04:09:12.636Z,98364.69
2022-11-05T04:11:58.225Z,98365.78
2022-11-05T04:14:26.374Z,98363.06
2022-11-05T04:17:09.803Z,98378.66
2022-11-05T04:20:00.161Z,98394.25
2022-11-05T04:22:48.113Z,98398.66
2022-11-05T04:25:16.410Z,98404.66
2022-11-05T04:27:43.680Z,98408.09
2022-11-05T04:30:20.281Z,98407.50
2022-11-05T04:33:00.528Z,98411.72
2022-11-05T04:35:29.651Z,98419.50
2022-11-05T04:37:57.060Z,98426.31
2022-11-05T04:40:24.353Z,98420.25
2022-11-05T04:42:51.333Z,98422.09
2022-11-05T04:45:18.168Z,98423.94
2022-11-05T04:47:44.943Z,98427.44
2022-11-05T04:50:13.367Z,98422.28
2022-11-05T04:52:40.743Z,98420.56
2022-11-05T04:55:08.306Z,98439.66
2022-11-05T04:57:35.787Z,98443.19
2022-11-05T05:00:02.828Z,98432.81
2022-11-05T05:02:29.828Z,98439.72
2022-11-05T05:04:56.676Z,98437.22
2022-11-05T05:07:23.732Z,98438.16
2022-11-05T05:09:50.585Z,98435.50
2022-11-05T05:12:17.429Z,98438.88
2022-11-05T05:14:44.407Z,98424.19
2022-11-05T05:17:11.216Z,98422.69
2022-11-05T05:19:56.565Z,98412.91
2022-11-05T05:22:23.350Z,98427.66
2022-11-05T05:24:53.004Z,98419.84
2022-11-05T05:27:20.591Z,98401.66
2022-11-05T05:29:49.928Z,98404.19
2022-11-05T05:32:17.245Z,98400.69
2022-11-05T05:34:44.377Z,98390.28
2022-11-05T05:37:11.181Z,98391.94
2022-11-05T05:39:38.017Z,98397.16
2022-11-05T05:42:04.942Z,98401.59
2022-11-05T05:44:31.788Z,98392.06
2022-11-05T05:46:58.646Z,98388.56
2022-11-05T05:49:25.636Z,98392.03
2022-11-05T05:51:52.447Z,98392.94
2022-11-05T05:54:19.279Z,98378.25
2022-11-05T05:56:46.345Z,98386.06
2022-11-05T05:59:13.247Z,98386.00
2022-11-05T06:01:40.289Z,98392.94
2022-11-05T06:04:07.304Z,98388.50
2022-11-05T06:06:34.088Z,98391.09
2022-11-05T06:09:01.009Z,98387.72
2022-11-05T06:11:28.461Z,98391.16
2022-11-05T06:13:55.365Z,98393.72
2022-11-05T06:16:22.146Z,98391.03
2022-11-05T06:18:49.455Z,98386.59
2022-11-05T06:21:17.913Z,98387.41
2022-11-05T06:23:45.838Z,98385.63
2022-11-05T06:26:15.949Z,98389.09
2022-11-05T06:28:43.374Z,98391.69
2022-11-05T06:31:11.357Z,98394.34
2022-11-05T06:33:39.024Z,98395.22
2022-11-05T06:36:07.344Z,98396.81
2022-11-05T06:38:36.400Z,98388.91
2022-11-05T06:41:09.837Z,98396.00
2022-11-05T06:43:37.816Z,98401.16
2022-11-05T06:46:04.909Z,98396.69
2022-11-05T06:48:31.915Z,98396.66
2022-11-05T06:50:59.078Z,98397.44
2022-11-05T06:53:26.130Z,98386.16
2022-11-05T06:55:53.110Z,98394.88
2022-11-05T06:58:20.211Z,98390.50
2022-11-05T07:00:47.393Z,98404.31
2022-11-05T07:03:15.130Z,98392.16
2022-11-05T07:05:45.454Z,98391.19
2022-11-05T07:08:12.498Z,98387.63
2022-11-05T07:10:39.404Z,98397.25
2022-11-05T07:13:08.550Z,98399.09
2022-11-05T07:15:36.803Z,98404.16
2022-11-05T07:18:04.841Z,98393.75
2022-11-05T07:20:34.298Z,98401.34
2022-11-05T07:23:07.339Z,98408.16
2022-11-05T07:25:34.856Z,98397.91
2022-11-05T07:28:02.612Z,98394.25
2022-11-05T07:30:30.308Z,98398.53
2022-11-05T07:32:57.657Z,98397.03
2022-11-05T07:35:24.935Z,98391.81
2022-11-05T07:37:56.777Z,98392.03
2022-11-05T07:40:26.226Z,98396.06
2022-11-05T07:42:58.145Z,98398.88
2022-11-05T07:45:26.402Z,98395.03
2022-11-05T07:47:58.313Z,98397.44
2022-11-05T07:50:28.375Z,98395.41
2022-11-05T07:53:03.590Z,98395.41
2022-11-05T07:55:31.069Z,98402.38
2022-11-05T07:57:58.344Z,98412.41
2022-11-05T08:00:26.950Z,98412.28
2022-11-05T08:03:07.090Z,98416.66
2022-11-05T08:05:37.143Z,98410.06
2022-11-05T08:08:05.253Z,98418.47
2022-11-05T08:10:32.672Z,98413.44
2022-11-05T08:12:59.455Z,98402.13
2022-11-05T08:15:26.354Z,98403.97
2022-11-05T08:18:04.806Z,98409.88
2022-11-05T08:20:32.900Z,98408.22
2022-11-05T08:22:59.898Z,98411.50
2022-11-05T08:25:27.255Z,98413.91
2022-11-05T08:27:59.521Z,98418.00
2022-11-05T08:30:26.437Z,98419.56
2022-11-05T08:33:01.187Z,98427.41
2022-11-05T08:35:29.419Z,98423.91
2022-11-05T08:37:58.196Z,98428.63
2022-11-05T08:40:26.283Z,98430.09
2022-11-05T08:42:53.463Z,98428.25
2022-11-05T08:45:20.285Z,98438.53
2022-11-05T08:47:47.225Z,98431.59
2022-11-05T08:50:14.037Z,98440.88
2022-11-05T08:52:41.025Z,98437.47
2022-11-05T08:55:08.216Z,98424.31
2022-11-05T08:57:35.056Z,98439.16
2022-11-05T09:00:01.872Z,98448.59
2022-11-05T09:02:28.827Z,98452.06
2022-11-05T09:04:55.654Z,98450.19
2022-11-05T09:07:23.075Z,98449.44
2022-11-05T09:09:50.040Z,98464.97
2022-11-05T09:12:17.120Z,98465.56
2022-11-05T09:14:43.922Z,98456.97
2022-11-05T09:17:20.709Z,98462.94
2022-11-05T09:19:47.913Z,98463.91
2022-11-05T09:22:15.248Z,98461.06
2022-11-05T09:24:43.556Z,98473.19
2022-11-05T09:27:11.995Z,98464.34
2022-11-05T09:29:39.375Z,98455.31
2022-11-05T09:32:06.785Z,98461.38
2022-11-05T09:34:33.666Z,98468.25
2022-11-05T09:37:00.606Z,98477.16
2022-11-05T09:39:27.656Z,98480.25
2022-11-05T09:41:59.466Z,98484.19
2022-11-05T09:44:35.885Z,98473.53
2022-11-05T09:47:07.531Z,98478.34
2022-11-05T09:49:44.505Z,98483.34
2022-11-05T09:52:15.241Z,98479.78
2022-11-05T09:54:42.145Z,98482.09
2022-11-05T09:57:25.835Z,98475.78
2022-11-05T09:59:57.005Z,98484.09
2022-11-05T10:02:48.922Z,98481.63
2022-11-05T10:05:17.259Z,98486.88
2022-11-05T10:07:51.392Z,98494.59
2022-11-05T10:10:58.596Z,98500.44
2022-11-05T10:13:44.543Z,98499.41
2022-11-05T10:16:20.597Z,98495.81
2022-11-05T10:19:03.198Z,98486.31
2022-11-05T10:22:04.265Z,98485.22
2022-11-05T10:24:21.448Z,98493.81
2022-11-05T10:26:51.830Z,98488.34
2022-11-05T10:29:29.474Z,98489.00
2022-11-05T10:32:01.405Z,98475.03
2022-11-05T10:34:33.838Z,98494.06
2022-11-05T10:37:01.061Z,98487.19
2022-11-05T10:39:30.807Z,98484.59
2022-11-05T10:41:57.706Z,98480.00
2022-11-05T10:44:27.304Z,98479.94
2022-11-05T10:47:18.656Z,98484.44
2022-11-05T10:50:04.314Z,98492.88
2022-11-05T10:52:37.135Z,98486.56
2022-11-05T10:55:16.446Z,98486.81
2022-11-05T10:57:43.754Z,98495.91
2022-11-05T11:00:21.978Z,98484.47
2022-11-05T11:02:52.364Z,98496.59
2022-11-05T11:05:26.348Z,98489.47
2022-11-05T11:08:05.207Z,98485.06
2022-11-05T11:10:52.166Z,98481.31
2022-11-05T11:13:25.256Z,98486.13
2022-11-05T11:15:52.686Z,98477.16
2022-11-05T11:18:40.401Z,98476.19
2022-11-05T11:21:15.765Z,98482.06
2022-11-05T11:23:53.249Z,98481.25
2022-11-05T11:26:21.906Z,98474.31
2022-11-05T11:29:11.846Z,98479.94
2022-11-05T11:31:39.896Z,98468.91
2022-11-05T11:34:26.927Z,98457.94
2022-11-05T11:37:08.171Z,98463.31
2022-11-05T11:39:35.939Z,98453.97
2022-11-05T11:42:09.042Z,98467.63
2022-11-05T11:44:45.906Z,98460.50
2022-11-05T11:47:16.808Z,98447.94
2022-11-05T11:50:00.756Z,98464.44
2022-11-05T11:52:33.701Z,98458.13
2022-11-05T11:55:12.617Z,98468.22
2022-11-05T11:58:05.601Z,98463.16
2022-11-05T12:00:37.585Z,98479.59
2022-11-05T12:03:40.114Z,98471.16
2022-11-05T12:06:42.085Z,98463.25
2022-11-05T12:09:11.849Z,98471.97
2022-11-05T12:11:53.401Z,98466.72
2022-11-05T12:14:46.964Z,98472.44
2022-11-05T12:17:19.931Z,98467.91
2022-11-05T12:20:04.464Z,98464.66
2022-11-05T12:22:43.224Z,98482.03
2022-11-05T12:25:22.065Z,98473.03
2022-11-05T12:28:04.013Z,98497.56
2022-11-05T12:30:49.551Z,98487.06
2022-11-05T12:33:25.074Z,98496.38
2022-11-05T12:36:21.206Z,98498.81
2022-11-05T12:39:00.200Z,98489.06
2022-11-05T12:41:30.036Z,98484.91
2022-11-05T12:44:31.965Z,98500.53
2022-11-05T12:47:26.288Z,98511.47
2022-11-05T12:50:25.131Z,98514.91
2022-11-05T12:53:13.464Z,98502.34
2022-11-05T12:55:48.376Z,98513.94
2022-11-05T12:58:33.486Z,98516.38
2022-11-05T13:01:18.404Z,98505.47
2022-11-05T13:03:55.801Z,98507.78
2022-11-05T13:06:30.325Z,98500.97
2022-11-05T13:09:14.648Z,98515.84
2022-11-05T13:11:50.756Z,98511.84
2022-11-05T13:14:29.127Z,98518.47
2022-11-05T13:17:08.032Z,98516.31
2022-11-05T13:19:47.396Z,98532.72
2022-11-05T13:22:55.516Z,98545.88
2022-11-05T13:25:25.456Z,98546.75
2022-11-05T13:28:01.374Z,98547.69
2022-11-05T13:30:39.677Z,98565.38
2022-11-05T13:33:18.147Z,98576.78
2022-11-05T13:35:47.354Z,98582.63
2022-11-05T13:38:42.153Z,98583.69
2022-11-05T13:41:28.616Z,98591.69
2022-11-05T13:44:26.454Z,98604.91
2022-11-05T13:47:05.185Z,98598.28
2022-11-05T13:49:43.947Z,98603.50
2022-11-05T13:52:45.305Z,98613.84
2022-11-05T13:55:18.205Z,98617.50
2022-11-05T13:57:57.497Z,98600.31
2022-11-05T14:00:29.370Z,98608.78
2022-11-05T14:02:58.136Z,98627.16
2022-11-05T14:05:37.357Z,98615.06
2022-11-05T14:08:21.106Z,98605.72
2022-11-05T14:11:02.366Z,98615.41
2022-11-05T14:13:34.232Z,98618.06
2022-11-05T14:16:19.272Z,98621.72
2022-11-05T14:18:48.764Z,98613.06
2022-11-05T14:21:48.845Z,98622.75
2022-11-05T14:24:40.369Z,98621.94
2022-11-05T14:27:07.186Z,98633.16
2022-11-05T14:29:45.877Z,98633.16
2022-11-05T14:32:21.278Z,98632.28
2022-11-05T14:34:56.135Z,98621.13
2022-11-05T14:37:44.696Z,98630.69
2022-11-05T14:40:32.826Z,98640.34
2022-11-05T14:43:03.174Z,98643.75
2022-11-05T14:45:29.949Z,98654.97
2022-11-05T14:48:06.016Z,98650.72
2022-11-05T14:50:43.078Z,98644.72
2022-11-05T14:53:37.051Z,98643.88
2022-11-05T14:56:03.786Z,98662.94
2022-11-05T14:58:35.552Z,98652.53
2022-11-05T15:01:05.570Z,98660.41
2022-11-05T15:03:45.439Z,98663.91
2022-11-05T15:06:21.677Z,98678.66
2022-11-05T15:08:48.411Z,98670.84
2022-11-05T15:11:33.705Z,98671.69
2022-11-05T15:14:07.706Z,98671.72
2022-11-05T15:16:43.736Z,98672.59
2022-11-05T15:19:37.737Z,98678.66
2022-11-05T15:22:17.964Z,98669.13
2022-11-05T15:24:44.744Z,98686.44
2022-11-05T15:27:45.388Z,98684.72
2022-11-05T15:30:17.381Z,98694.25
2022-11-05T15:32:44.339Z,98694.25
2022-11-05T15:35:22.307Z,98701.19
2022-11-05T15:37:54.614Z,98708.09
2022-11-05T15:40:26.424Z,98711.56
2022-11-05T15:43:21.336Z,98705.50
2022-11-05T15:46:14.281Z,98716.75
2022-11-05T15:48:44.720Z,98716.75
2022-11-05T15:51:12.609Z,98713.31
2022-11-05T15:54:08.812Z,98718.47
2022-11-05T15:56:47.346Z,98718.50
2022-11-05T15:59:20.019Z,98725.44
2022-11-05T16:01:56.696Z,98726.28
2022-11-05T16:04:27.621Z,98735.81
2022-11-05T16:06:58.138Z,98740.13
2022-11-05T16:09:26.245Z,98747.94
2022-11-05T16:12:27.856Z,98747.94
2022-11-05T16:14:58.573Z,98747.06
2022-11-05T16:17:28.040Z,98740.09
2022-11-05T16:19:55.296Z,98752.25
2022-11-05T16:22:22.776Z,98750.50
2022-11-05T16:24:49.891Z,98759.19
2022-11-05T16:27:19.961Z,98769.56
2022-11-05T16:29:54.128Z,98770.44
2022-11-05T16:32:31.340Z,98752.22
2022-11-05T16:35:05.215Z,98785.16
2022-11-05T16:37:39.920Z,98770.44
2022-11-05T16:40:18.009Z,98775.66
2022-11-05T16:42:48.651Z,98773.03
2022-11-05T16:45:18.150Z,98784.31
2022-11-05T16:47:45.845Z,98790.38
2022-11-05T16:50:19.217Z,98780.84
2022-11-05T16:52:47.189Z,98789.44
2022-11-05T16:55:15.506Z,98786.84
2022-11-05T16:57:44.866Z,98811.09
2022-11-05T17:00:15.937Z,98797.25
2022-11-05T17:02:44.261Z,98800.72
2022-11-05T17:05:24.210Z,98799.81
2022-11-05T17:07:51.409Z,98783.38
2022-11-05T17:10:18.927Z,98800.66
2022-11-05T17:12:46.260Z,98798.94
2022-11-05T17:15:24.848Z,98792.03
2022-11-05T17:17:53.566Z,98802.41
2022-11-05T17:20:36.494Z,98806.75
2022-11-05T17:23:07.186Z,98811.06
2022-11-05T17:25:34.348Z,98821.44
2022-11-05T17:28:01.148Z,98821.44
2022-11-05T17:30:29.119Z,98820.59
2022-11-05T17:32:56.140Z,98822.25
2022-11-05T17:35:23.367Z,98828.22
2022-11-05T17:37:50.590Z,98832.59
2022-11-05T17:40:20.057Z,98827.47
2022-11-05T17:42:46.958Z,98837.81
2022-11-05T17:45:13.903Z,98828.28
2022-11-05T17:47:41.897Z,98833.47
2022-11-05T17:50:11.558Z,98841.28
2022-11-05T17:52:38.734Z,98843.00
2022-11-05T17:55:08.728Z,98838.66
2022-11-05T17:57:35.557Z,98841.31
2022-11-05T18:00:02.328Z,98837.81
2022-11-05T18:02:29.688Z,98849.09
2022-11-05T18:04:56.579Z,98845.63
2022-11-05T18:07:23.411Z,98853.38
2022-11-05T18:09:50.276Z,98844.66
2022-11-05T18:12:17.118Z,98847.34
2022-11-05T18:14:43.897Z,98853.41
2022-11-05T18:17:11.039Z,98852.56
2022-11-05T18:19:39.009Z,98860.34
2022-11-05T18:22:06.169Z,98845.63
2022-11-05T18:24:33.451Z,98850.84
2022-11-05T18:27:00.341Z,98861.16
2022-11-05T18:29:27.147Z,98867.25
2022-11-05T18:31:54.464Z,98862.78
2022-11-05T18:34:21.258Z,98865.41
2022-11-05T18:36:52.079Z,98854.19
2022-11-05T18:39:22.120Z,98854.22
2022-11-05T18:41:48.849Z,98866.31
2022-11-05T18:44:16.891Z,98863.72
2022-11-05T18:46:57.552Z,98873.19
2022-11-05T18:49:24.790Z,98881.03
2022-11-05T18:51:51.725Z,98870.69
2022-11-05T18:54:18.499Z,98865.41
2022-11-05T18:56:45.810Z,98870.63
2022-11-05T19:02:05.513Z,98870.59
2022-11-05T19:04:32.517Z,98866.34
2022-11-05T19:07:04.375Z,98865.47
2022-11-05T19:09:31.898Z,98876.69
2022-11-05T19:11:58.898Z,98878.44
2022-11-05T19:14:25.719Z,98877.50
2022-11-05T19:16:52.488Z,98878.41
2022-11-05T19:19:19.351Z,98872.34
2022-11-05T19:21:46.169Z,98882.66
2022-11-05T19:24:16.630Z,98902.63
2022-11-05T19:26:44.561Z,98897.41
2022-11-05T19:29:11.726Z,98901.75
2022-11-05T19:31:38.909Z,98910.44
2022-11-05T19:34:05.807Z,98907.84
2022-11-05T19:36:33.921Z,98906.13
2022-11-05T19:39:03.857Z,98907.88
2022-11-05T19:41:31.148Z,98920.81
2022-11-05T19:43:58.908Z,98914.75
2022-11-05T19:46:26.179Z,98913.91
2022-11-05T19:48:53.648Z,98913.97
2022-11-05T19:51:30.614Z,98922.69
2022-11-05T19:54:00.131Z,98907.88
2022-11-05T19:56:30.579Z,98908.72
2022-11-05T19:58:57.861Z,98912.22
2022-11-05T20:01:27.145Z,98915.69
2022-11-05T20:03:55.571Z,98925.25
2022-11-05T20:06:28.654Z,98922.66
2022-11-05T20:11:45.480Z,98923.53
2022-11-05T20:14:12.351Z,98925.28
2022-11-05T20:16:40.163Z,98918.31
2022-11-05T20:19:10.278Z,98919.16
2022-11-05T20:21:37.612Z,98931.28
2022-11-05T20:24:05.257Z,98943.44
2022-11-05T20:26:32.226Z,98944.19
2022-11-05T20:28:59.238Z,98948.50
2022-11-05T20:31:26.127Z,98961.53
2022-11-05T20:33:53.830Z,98958.94
2022-11-05T20:36:23.073Z,98948.56
2022-11-05T20:38:55.466Z,98935.59
2022-11-05T20:41:23.198Z,98953.78
2022-11-05T20:43:51.008Z,98948.56
2022-11-05T20:46:19.688Z,98958.06
2022-11-05T20:48:46.752Z,98964.13
2022-11-05T20:51:16.589Z,98971.91
2022-11-05T20:53:44.005Z,98971.09
2022-11-05T20:56:22.817Z,98969.34
2022-11-05T20:58:50.361Z,98967.69
2022-11-05T21:01:18.412Z,98957.25
2022-11-05T21:03:46.589Z,98963.34
2022-11-05T21:06:14.079Z,98969.41
2022-11-05T21:08:40.908Z,98971.09
2022-11-05T21:11:07.877Z,98984.09
2022-11-05T21:13:35.977Z,98981.59
2022-11-05T21:16:05.948Z,98969.44
2022-11-05T21:18:35.143Z,98985.00
2022-11-05T21:21:09.357Z,98990.19
2022-11-05T21:23:36.248Z,98994.38
2022-11-05T21:26:05.447Z,99001.34
2022-11-05T21:28:32.918Z,99000.50
2022-11-05T21:31:03.727Z,98997.03
2022-11-05T21:33:30.685Z,98997.91
2022-11-05T21:35:58.108Z,98989.22
2022-11-05T21:38:25.611Z,98993.56
2022-11-05T21:40:52.438Z,98979.78
2022-11-05T21:43:19.259Z,98971.13
2022-11-05T21:45:46.087Z,98988.41
2022-11-05T21:48:15.462Z,98978.06
2022-11-05T21:51:01.155Z,98974.59
2022-11-05T21:53:46.644Z,98972.88
2022-11-05T21:56:42.470Z,98985.03
2022-11-05T21:59:31.975Z,98993.63
2022-11-05T22:02:02.135Z,98991.91
2022-11-05T22:04:37.364Z,98994.50
2022-11-05T22:07:05.337Z,98986.66
2022-11-05T22:09:32.265Z,98981.41
2022-11-05T22:12:00.305Z,98973.69
2022-11-05T22:14:28.467Z,98971.16
2022-11-05T22:16:56.091Z,98980.66
2022-11-05T22:19:23.968Z,98969.34
2022-11-05T22:21:50.964Z,98985.00
2022-11-05T22:24:18.843Z,98982.41
2022-11-05T22:26:46.476Z,98988.44
2022-11-05T22:29:22.442Z,98985.88
2022-11-05T22:33:36.436Z,99003.19
2022-11-05T22:36:04.255Z,98997.97
2022-11-05T22:38:31.505Z,99010.13
2022-11-05T22:40:58.457Z,99009.28
2022-11-05T22:43:25.214Z,99004.09
2022-11-05T22:45:51.996Z,99004.94
2022-11-05T22:48:18.938Z,99004.06
2022-11-05T22:50:45.759Z,99007.50
2022-11-05T22:53:12.547Z,99013.50
2022-11-05T22:55:40.095Z,99001.41
2022-11-05T22:58:06.925Z,98994.50
2022-11-05T23:00:36.109Z,99003.16
2022-11-05T23:03:03.250Z,98997.09
2022-11-05T23:05:30.187Z,99002.28
2022-11-05T23:08:16.146Z,98999.72
2022-11-05T23:11:01.424Z,99006.63
2022-11-05T23:13:28.696Z,98997.09
2022-11-05T23:16:14.380Z,98996.25
2022-11-05T23:18:59.944Z,98999.69
2022-11-05T23:21:45.489Z,98996.22
2022-11-05T23:24:13.809Z,98996.22
2022-11-05T23:26:52.893Z,98985.88
2022-11-05T23:29:25.323Z,98978.91
2022-11-05T23:32:11.375Z,98979.75
2022-11-05T23:34:38.847Z,98991.81
2022-11-05T23:37:27.009Z,98993.63
2022-11-05T23:39:53.967Z,98992.78
2022-11-05T23:42:39.626Z,98975.47
2022-11-05T23:45:25.823Z,98971.13
2022-11-05T23:48:12.191Z,98980.63
2022-11-05T23:50:40.352Z,98974.59
2022-11-05T23:53:08.192Z,98981.50
2022-11-05T23:55:35.405Z,98975.41
2022-11-05T23:58:02.364Z,98978.00
